This is the latest recevied weather packets stored in our database for station/object SP2WM. If no packets are shown the sender has not sent any weather packets the latest 10 day(s).
| Time | Temp. | Humidity | Pressure | Rain* | Wind** | Luminosity | Snow |
|---|---|---|---|---|---|---|---|
| 1777983632 | 25° C | 53% | 1005.5 hPa | 0 mm | - | - | - |
| 1777983037 | 25.56° C | 51% | 1005.7 hPa | 0 mm | - | - | - |
| 1777982434 | 26.11° C | 50% | 1005.7 hPa | 0 mm | - | - | - |
| 1777981832 | 26.67° C | 50% | 1005.8 hPa | 0 mm | - | - | - |
| 1777981238 | 26.67° C | 48% | 1005.7 hPa | 0 mm | - | - | - |
| 1777980640 | 26.11° C | 52% | 1005.9 hPa | 0 mm | - | - | - |
| 1777980038 | 24.44° C | 56% | 1006 hPa | 0 mm | - | - | - |
| 1777979425 | 22.78° C | 62% | 1006.1 hPa | 0 mm | - | - | - |
| 1777978842 | 22.22° C | 61% | 1006.2 hPa | 0 mm | - | - | - |
| 1777978238 | 22.22° C | 62% | 1006.1 hPa | 0 mm | - | - | - |
| 1777977631 | 21.67° C | 63% | 1006.2 hPa | 0 mm | - | - | - |
| 1777977030 | 21.67° C | 63% | 1006.3 hPa | 0 mm | - | - | - |
| 1777976429 | 21.67° C | 64% | 1006.4 hPa | 0 mm | - | - | - |
| 1777975838 | 21.67° C | 63% | 1006.7 hPa | 0 mm | - | - | - |
| 1777975240 | 21.67° C | 61% | 1006.9 hPa | 0 mm | - | - | - |
| 1777974637 | 22.22° C | 61% | 1006.7 hPa | 0 mm | - | - | - |
| 1777974044 | 21.67° C | 62% | 1006.8 hPa | 0 mm | - | - | - |
| 1777973441 | 21.67° C | 62% | 1006.9 hPa | 0 mm | - | - | - |
| 1777972838 | 21.67° C | 62% | 1007 hPa | 0 mm | - | - | - |
| 1777972244 | 21.11° C | 62% | 1006.9 hPa | 0 mm | - | - | - |
| 1777971643 | 21.11° C | 63% | 1006.9 hPa | 0 mm | - | - | - |
| 1777971040 | 21.11° C | 65% | 1006.9 hPa | 0 mm | - | - | - |
| 1777970426 | 21.11° C | 66% | 1007 hPa | 0 mm | - | - | - |
| 1777969826 | 21.11° C | 67% | 1007.1 hPa | 0 mm | - | - | - |
| 1777969228 | 20.56° C | 68% | 1007.2 hPa | 0 mm | - | - | - |
* Rain latest hour (hover to see other rain measurements)
** Current wind speed in m/s (hover to see current wind gust speed)